Check out our new PWSWeather beta!
PWSweather.com
Personal Weather Stations
Station Observations
SHAHALMS1
Eftra, Falkenberg, HA

EftraFalkenberg, HA

Lat: 56.85, Lon: 12.65

Elevation: 140

Station Type:

http://hem.passagen.se/risarp101

High Low Average
Temperature 45.0°F7.2°C 28.6°F-1.9°C 39.8°F4.3°C
Dew Point 35.5°F1.9°C 14.0°F-10.0°C 24.3°F-4.3°C
Winds 19.5 mph 31.4 kmh Calm Calm 10.0 mph W16.1 kmh W
Wind Gusts 47.2 mph76.0 kmh -- 22.0 mph35.4 kmh
Humidity 80% 41% 55%
Pressure 30.33 in1027.1 mb 29.92 in1013.2 mb -
Precipitation 0.00 in0.0 mm - -
Hour Temp Dew Point Humidity Winds Wind Gusts Pressure Precip Precip Rate Daily Precip Total
12:00 AM 41.2°F5.1°C 35.5°F1.9°C 80% 11.1 mph W17.9 kmh W 20.8 mph33.5 kmh 29.95 in1014.2 mb 0.00 in0.0 mm 0.00 in0.0 mm 0.00 in0.0 mm
12:15 AM 41.0°F5.0°C 35.0°F1.7°C 79% 11.7 mph W18.8 kmh W 33.6 mph54.1 kmh 29.95 in1014.2 mb 0.00 in0.0 mm 0.00 in0.0 mm 0.00 in0.0 mm
12:30 AM 41.0°F5.0°C 35.3°F1.8°C 80% 9.9 mph W15.9 kmh W 20.8 mph33.5 kmh 29.95 in1014.2 mb 0.00 in0.0 mm 0.00 in0.0 mm 0.00 in0.0 mm
12:45 AM 41.0°F5.0°C 35.0°F1.7°C 79% 11.7 mph WNW18.8 kmh WNW 24.7 mph39.8 kmh 29.95 in1014.2 mb 0.00 in0.0 mm 0.00 in0.0 mm 0.00 in0.0 mm
01:00 AM 41.0°F5.0°C 35.3°F1.8°C 80% 11.4 mph W18.3 kmh W 24.3 mph39.1 kmh 29.95 in1014.2 mb 0.00 in0.0 mm 0.00 in0.0 mm 0.00 in0.0 mm
01:15 AM 41.2°F5.1°C 35.5°F1.9°C 80% 12.0 mph W19.3 kmh W 27.9 mph44.9 kmh 29.98 in1015.2 mb 0.00 in0.0 mm 0.00 in0.0 mm 0.00 in0.0 mm
01:30 AM 41.0°F5.0°C 35.0°F1.7°C 79% 12.3 mph W19.8 kmh W 28.6 mph46.0 kmh 29.95 in1014.2 mb 0.00 in0.0 mm 0.00 in0.0 mm 0.00 in0.0 mm
01:45 AM 41.0°F5.0°C 35.3°F1.8°C 80% 11.5 mph W18.5 kmh W 27.6 mph44.4 kmh 29.92 in1013.2 mb 0.00 in0.0 mm 0.00 in0.0 mm 0.00 in0.0 mm
02:00 AM 40.6°F4.8°C 34.3°F1.3°C 78% 11.2 mph W18.0 kmh W 24.7 mph39.8 kmh 29.95 in1014.2 mb 0.00 in0.0 mm 0.00 in0.0 mm 0.00 in0.0 mm
02:15 AM 40.5°F4.7°C 33.5°F0.8°C 76% 12.2 mph W19.6 kmh W 21.1 mph34.0 kmh 29.92 in1013.2 mb 0.00 in0.0 mm 0.00 in0.0 mm 0.00 in0.0 mm
02:30 AM 40.5°F4.7°C 33.2°F0.7°C 75% 12.5 mph W20.1 kmh W 20.8 mph33.5 kmh 29.92 in1013.2 mb 0.00 in0.0 mm 0.00 in0.0 mm 0.00 in0.0 mm
02:45 AM 40.5°F4.7°C 32.8°F0.4°C 74% 12.4 mph W20.0 kmh W 23.3 mph37.5 kmh 29.92 in1013.2 mb 0.00 in0.0 mm 0.00 in0.0 mm 0.00 in0.0 mm
03:00 AM 40.5°F4.7°C 32.8°F0.4°C 74% 10.8 mph W17.4 kmh W 25.8 mph41.5 kmh 29.92 in1013.2 mb 0.00 in0.0 mm 0.00 in0.0 mm 0.00 in0.0 mm
03:15 AM 40.3°F4.6°C 32.6°F0.3°C 74% 11.3 mph W18.2 kmh W 27.6 mph44.4 kmh 29.92 in1013.2 mb 0.00 in0.0 mm 0.00 in0.0 mm 0.00 in0.0 mm
03:30 AM 40.1°F4.5°C 32.5°F0.3°C 74% 10.3 mph W16.6 kmh W 24.7 mph39.8 kmh 29.92 in1013.2 mb 0.00 in0.0 mm 0.00 in0.0 mm 0.00 in0.0 mm
03:45 AM 39.9°F4.4°C 32.6°F0.3°C 75% 10.3 mph W16.6 kmh W 17.5 mph28.2 kmh 29.92 in1013.2 mb 0.00 in0.0 mm 0.00 in0.0 mm 0.00 in0.0 mm
04:00 AM 39.7°F4.3°C 32.8°F0.4°C 76% 11.4 mph WNW18.3 kmh WNW 28.3 mph45.5 kmh 29.92 in1013.2 mb 0.00 in0.0 mm 0.00 in0.0 mm 0.00 in0.0 mm
04:15 AM 39.9°F4.4°C 33.0°F0.6°C 76% 11.2 mph WNW18.0 kmh WNW 24.3 mph39.1 kmh 29.92 in1013.2 mb 0.00 in0.0 mm 0.00 in0.0 mm 0.00 in0.0 mm
04:30 AM 39.7°F4.3°C 32.1°F0.1°C 74% 11.3 mph WNW18.2 kmh WNW 23.6 mph38.0 kmh 29.92 in1013.2 mb 0.00 in0.0 mm 0.00 in0.0 mm 0.00 in0.0 mm
04:45 AM 39.4°F4.1°C 30.8°F-0.7°C 71% 11.2 mph WNW18.0 kmh WNW 24.3 mph39.1 kmh 29.92 in1013.2 mb 0.00 in0.0 mm 0.00 in0.0 mm 0.00 in0.0 mm
05:00 AM 39.2°F4.0°C 30.2°F-1.0°C 70% 10.4 mph W16.7 kmh W 22.9 mph36.9 kmh 29.92 in1013.2 mb 0.00 in0.0 mm 0.00 in0.0 mm 0.00 in0.0 mm
05:15 AM 39.0°F3.9°C 29.3°F-1.5°C 68% 10.6 mph WNW17.1 kmh WNW 33.6 mph54.1 kmh 29.95 in1014.2 mb 0.00 in0.0 mm 0.00 in0.0 mm 0.00 in0.0 mm
05:30 AM 39.0°F3.9°C 28.6°F-1.9°C 66% 11.0 mph NW17.7 kmh NW 20.8 mph33.5 kmh 29.95 in1014.2 mb 0.00 in0.0 mm 0.00 in0.0 mm 0.00 in0.0 mm
05:45 AM 39.0°F3.9°C 27.9°F-2.3°C 64% 10.8 mph WNW17.4 kmh WNW 22.9 mph36.9 kmh 29.92 in1013.2 mb 0.00 in0.0 mm 0.00 in0.0 mm 0.00 in0.0 mm
06:00 AM 39.2°F4.0°C 27.7°F-2.4°C 63% 11.0 mph NW17.7 kmh NW 21.8 mph35.1 kmh 29.95 in1014.2 mb 0.00 in0.0 mm 0.00 in0.0 mm 0.00 in0.0 mm
06:15 AM 39.2°F4.0°C 26.5°F-3.1°C 60% 13.2 mph NW21.2 kmh NW 39.4 mph63.4 kmh 29.95 in1014.2 mb 0.00 in0.0 mm 0.00 in0.0 mm 0.00 in0.0 mm
06:30 AM 39.0°F3.9°C 26.3°F-3.2°C 60% 12.0 mph NW19.3 kmh NW 42.6 mph68.6 kmh 29.98 in1015.2 mb 0.00 in0.0 mm 0.00 in0.0 mm 0.00 in0.0 mm
06:45 AM 39.4°F4.1°C 25.4°F-3.7°C 57% 14.2 mph NW22.9 kmh NW 40.4 mph65.0 kmh 30.01 in1016.3 mb 0.00 in0.0 mm 0.00 in0.0 mm 0.00 in0.0 mm
07:00 AM 40.1°F4.5°C 26.1°F-3.3°C 57% 11.2 mph NW18.0 kmh NW 21.5 mph34.6 kmh 30.01 in1016.3 mb 0.00 in0.0 mm 0.00 in0.0 mm 0.00 in0.0 mm
07:15 AM 40.6°F4.8°C 25.7°F-3.5°C 55% 13.7 mph NW22.0 kmh NW 29.0 mph46.7 kmh 30.01 in1016.3 mb 0.00 in0.0 mm 0.00 in0.0 mm 0.00 in0.0 mm
07:30 AM 41.2°F5.1°C 25.3°F-3.7°C 53% 13.7 mph NW22.0 kmh NW 38.3 mph61.6 kmh 29.98 in1015.2 mb 0.00 in0.0 mm 0.00 in0.0 mm 0.00 in0.0 mm
07:45 AM 42.1°F5.6°C 25.7°F-3.5°C 52% 15.8 mph NW25.4 kmh NW 31.9 mph51.3 kmh 30.01 in1016.3 mb 0.00 in0.0 mm 0.00 in0.0 mm 0.00 in0.0 mm
08:00 AM 42.4°F5.8°C 25.6°F-3.6°C 51% 13.5 mph NW21.7 kmh NW 30.8 mph49.6 kmh 30.01 in1016.3 mb 0.00 in0.0 mm 0.00 in0.0 mm 0.00 in0.0 mm
08:17 AM 42.1°F5.6°C 24.8°F-4.0°C 50% 19.5 mph NW31.4 kmh NW 47.2 mph76.0 kmh 30.04 in1017.3 mb 0.00 in0.0 mm 0.00 in0.0 mm 0.00 in0.0 mm
08:30 AM 42.4°F5.8°C 24.6°F-4.1°C 49% 17.0 mph NW27.4 kmh NW 39.0 mph62.8 kmh 30.07 in1018.3 mb 0.00 in0.0 mm 0.00 in0.0 mm 0.00 in0.0 mm
08:45 AM 42.8°F6.0°C 24.4°F-4.2°C 48% 17.3 mph NW27.8 kmh NW 35.8 mph57.6 kmh 30.07 in1018.3 mb 0.00 in0.0 mm 0.00 in0.0 mm 0.00 in0.0 mm
09:00 AM 43.0°F6.1°C 24.6°F-4.1°C 48% 16.9 mph NW27.2 kmh NW 39.0 mph62.8 kmh 30.07 in1018.3 mb 0.00 in0.0 mm 0.00 in0.0 mm 0.00 in0.0 mm
09:15 AM 43.2°F6.2°C 24.3°F-4.3°C 47% 18.4 mph NW29.6 kmh NW 38.3 mph61.6 kmh 30.07 in1018.3 mb 0.00 in0.0 mm 0.00 in0.0 mm 0.00 in0.0 mm
09:30 AM 43.5°F6.4°C 24.6°F-4.1°C 47% 15.4 mph NW24.8 kmh NW 32.2 mph51.8 kmh 30.09 in1019.0 mb 0.00 in0.0 mm 0.00 in0.0 mm 0.00 in0.0 mm
09:45 AM 43.7°F6.5°C 24.2°F-4.3°C 46% 17.2 mph NW27.7 kmh NW 33.6 mph54.1 kmh 30.09 in1019.0 mb 0.00 in0.0 mm 0.00 in0.0 mm 0.00 in0.0 mm
10:00 AM 43.7°F6.5°C 23.7°F-4.6°C 45% 18.7 mph NW30.1 kmh NW 31.5 mph50.7 kmh 30.12 in1020.0 mb 0.00 in0.0 mm 0.00 in0.0 mm 0.00 in0.0 mm
10:15 AM 44.4°F6.9°C 25.4°F-3.7°C 47% 12.8 mph NW20.6 kmh NW 26.8 mph43.1 kmh 30.12 in1020.0 mb 0.00 in0.0 mm 0.00 in0.0 mm 0.00 in0.0 mm
10:30 AM 45.0°F7.2°C 26.4°F-3.1°C 48% 12.4 mph NW20.0 kmh NW 26.5 mph42.6 kmh 30.12 in1020.0 mb 0.00 in0.0 mm 0.00 in0.0 mm 0.00 in0.0 mm
10:45 AM 44.6°F7.0°C 25.6°F-3.6°C 47% 13.5 mph NW21.7 kmh NW 31.9 mph51.3 kmh 30.15 in1021.0 mb 0.00 in0.0 mm 0.00 in0.0 mm 0.00 in0.0 mm
11:00 AM 44.4°F6.9°C 24.9°F-3.9°C 46% 12.5 mph NW20.1 kmh NW 25.8 mph41.5 kmh 30.12 in1020.0 mb 0.00 in0.0 mm 0.00 in0.0 mm 0.00 in0.0 mm
11:15 AM 44.6°F7.0°C 25.6°F-3.6°C 47% 15.8 mph NW25.4 kmh NW 31.9 mph51.3 kmh 30.12 in1020.0 mb 0.00 in0.0 mm 0.00 in0.0 mm 0.00 in0.0 mm
11:30 AM 45.0°F7.2°C 25.9°F-3.4°C 47% 10.5 mph NW16.9 kmh NW 26.5 mph42.6 kmh 30.15 in1021.0 mb 0.00 in0.0 mm 0.00 in0.0 mm 0.00 in0.0 mm
11:45 AM 45.0°F7.2°C 25.9°F-3.4°C 47% 10.2 mph WNW16.4 kmh WNW 22.5 mph36.2 kmh 30.15 in1021.0 mb 0.00 in0.0 mm 0.00 in0.0 mm 0.00 in0.0 mm
12:00 PM 45.0°F7.2°C 25.4°F-3.7°C 46% 11.5 mph NW18.5 kmh NW 31.9 mph51.3 kmh 30.15 in1021.0 mb 0.00 in0.0 mm 0.00 in0.0 mm 0.00 in0.0 mm
12:15 PM 44.8°F7.1°C 25.8°F-3.4°C 47% 10.0 mph NW16.1 kmh NW 20.8 mph33.5 kmh 30.15 in1021.0 mb 0.00 in0.0 mm 0.00 in0.0 mm 0.00 in0.0 mm
12:30 PM 44.8°F7.1°C 25.2°F-3.8°C 46% 10.4 mph NW16.7 kmh NW 21.1 mph34.0 kmh 30.18 in1022.0 mb 0.00 in0.0 mm 0.00 in0.0 mm 0.00 in0.0 mm
12:45 PM 44.8°F7.1°C 25.2°F-3.8°C 46% 11.5 mph NW18.5 kmh NW 21.1 mph34.0 kmh 30.18 in1022.0 mb 0.00 in0.0 mm 0.00 in0.0 mm 0.00 in0.0 mm
01:00 PM 45.0°F7.2°C 25.4°F-3.7°C 46% 10.7 mph NW17.2 kmh NW 25.1 mph40.4 kmh 30.18 in1022.0 mb 0.00 in0.0 mm 0.00 in0.0 mm 0.00 in0.0 mm
01:15 PM 44.6°F7.0°C 25.6°F-3.6°C 47% 9.3 mph NW15.0 kmh NW 23.6 mph38.0 kmh 30.18 in1022.0 mb 0.00 in0.0 mm 0.00 in0.0 mm 0.00 in0.0 mm
01:30 PM 44.2°F6.8°C 23.7°F-4.6°C 44% 13.2 mph NW21.2 kmh NW 30.4 mph48.9 kmh 30.21 in1023.0 mb 0.00 in0.0 mm 0.00 in0.0 mm 0.00 in0.0 mm
01:45 PM 44.1°F6.7°C 24.6°F-4.1°C 46% 12.2 mph NW19.6 kmh NW 24.3 mph39.1 kmh 30.18 in1022.0 mb 0.00 in0.0 mm 0.00 in0.0 mm 0.00 in0.0 mm
02:00 PM 43.9°F6.6°C 24.4°F-4.2°C 46% 9.6 mph NW15.4 kmh NW 20.8 mph33.5 kmh 30.15 in1021.0 mb 0.00 in0.0 mm 0.00 in0.0 mm 0.00 in0.0 mm
02:15 PM 43.7°F6.5°C 23.7°F-4.6°C 45% 12.2 mph NW19.6 kmh NW 30.4 mph48.9 kmh 30.18 in1022.0 mb 0.00 in0.0 mm 0.00 in0.0 mm 0.00 in0.0 mm
02:30 PM 43.7°F6.5°C 23.2°F-4.9°C 44% 12.9 mph NW20.8 kmh NW 30.4 mph48.9 kmh 30.18 in1022.0 mb 0.00 in0.0 mm 0.00 in0.0 mm 0.00 in0.0 mm
02:45 PM 43.5°F6.4°C 24.1°F-4.4°C 46% 12.2 mph NW19.6 kmh NW 28.3 mph45.5 kmh 30.18 in1022.0 mb 0.00 in0.0 mm 0.00 in0.0 mm 0.00 in0.0 mm
03:00 PM 43.0°F6.1°C 22.5°F-5.3°C 44% 12.8 mph NW20.6 kmh NW 24.7 mph39.8 kmh 30.21 in1023.0 mb 0.00 in0.0 mm 0.00 in0.0 mm 0.00 in0.0 mm
03:15 PM 42.8°F6.0°C 22.4°F-5.3°C 44% 11.1 mph NW17.9 kmh NW 28.3 mph45.5 kmh 30.21 in1023.0 mb 0.00 in0.0 mm 0.00 in0.0 mm 0.00 in0.0 mm
03:30 PM 42.6°F5.9°C 21.7°F-5.7°C 43% 9.9 mph WNW15.9 kmh WNW 24.3 mph39.1 kmh 30.21 in1023.0 mb 0.00 in0.0 mm 0.00 in0.0 mm 0.00 in0.0 mm
03:45 PM 42.6°F5.9°C 22.2°F-5.4°C 44% 9.2 mph WNW14.8 kmh WNW 24.7 mph39.8 kmh 30.21 in1023.0 mb 0.00 in0.0 mm 0.00 in0.0 mm 0.00 in0.0 mm
04:00 PM 42.6°F5.9°C 22.2°F-5.4°C 44% 9.5 mph NW15.3 kmh NW 20.4 mph32.8 kmh 30.24 in1024.0 mb 0.00 in0.0 mm 0.00 in0.0 mm 0.00 in0.0 mm
04:16 PM 42.1°F5.6°C 21.2°F-6.0°C 43% 10.6 mph NW17.1 kmh NW 26.8 mph43.1 kmh 30.24 in1024.0 mb 0.00 in0.0 mm 0.00 in0.0 mm 0.00 in0.0 mm
04:33 PM 41.5°F5.3°C 20.7°F-6.3°C 43% 9.7 mph NW15.6 kmh NW 21.1 mph34.0 kmh 30.24 in1024.0 mb 0.00 in0.0 mm 0.00 in0.0 mm 0.00 in0.0 mm
04:45 PM 41.2°F5.1°C 19.8°F-6.8°C 42% 8.8 mph NW14.2 kmh NW 19.7 mph31.7 kmh 30.24 in1024.0 mb 0.00 in0.0 mm 0.00 in0.0 mm 0.00 in0.0 mm
05:00 PM 41.2°F5.1°C 19.2°F-7.1°C 41% 9.3 mph NW15.0 kmh NW 27.9 mph44.9 kmh 30.24 in1024.0 mb 0.00 in0.0 mm 0.00 in0.0 mm 0.00 in0.0 mm
05:15 PM 40.5°F4.7°C 18.6°F-7.4°C 41% 8.9 mph NW14.3 kmh NW 21.1 mph34.0 kmh 30.24 in1024.0 mb 0.00 in0.0 mm 0.00 in0.0 mm 0.00 in0.0 mm
05:30 PM 39.9°F4.4°C 18.7°F-7.4°C 42% 9.2 mph NW14.8 kmh NW 27.9 mph44.9 kmh 30.24 in1024.0 mb 0.00 in0.0 mm 0.00 in0.0 mm 0.00 in0.0 mm
05:45 PM 39.4°F4.1°C 18.2°F-7.7°C 42% 8.4 mph NW13.5 kmh NW 23.6 mph38.0 kmh 30.21 in1023.0 mb 0.00 in0.0 mm 0.00 in0.0 mm 0.00 in0.0 mm
06:00 PM 38.8°F3.8°C 18.2°F-7.7°C 43% 6.5 mph NW10.5 kmh NW 16.1 mph25.9 kmh 30.24 in1024.0 mb 0.00 in0.0 mm 0.00 in0.0 mm 0.00 in0.0 mm
06:15 PM 38.3°F3.5°C 18.3°F-7.6°C 44% 6.3 mph NW10.1 kmh NW 12.2 mph19.6 kmh 30.24 in1024.0 mb 0.00 in0.0 mm 0.00 in0.0 mm 0.00 in0.0 mm
06:30 PM 38.1°F3.4°C 18.1°F-7.7°C 44% 4.6 mph WNW7.4 kmh WNW 10.0 mph16.1 kmh 30.24 in1024.0 mb 0.00 in0.0 mm 0.00 in0.0 mm 0.00 in0.0 mm
06:45 PM 38.1°F3.4°C 18.1°F-7.7°C 44% 5.4 mph WNW8.7 kmh WNW 13.6 mph21.9 kmh 30.27 in1025.1 mb 0.00 in0.0 mm 0.00 in0.0 mm 0.00 in0.0 mm
07:00 PM 36.5°F2.5°C 17.1°F-8.3°C 45% 4.5 mph WNW7.2 kmh WNW 9.7 mph15.6 kmh 30.27 in1025.1 mb 0.00 in0.0 mm 0.00 in0.0 mm 0.00 in0.0 mm
07:15 PM 36.0°F2.2°C 16.7°F-8.5°C 45% 4.1 mph WNW6.6 kmh WNW 10.4 mph16.7 kmh 30.27 in1025.1 mb 0.00 in0.0 mm 0.00 in0.0 mm 0.00 in0.0 mm
07:30 PM 35.6°F2.0°C 16.8°F-8.4°C 46% 2.9 mph W4.7 kmh W 7.9 mph12.7 kmh 30.27 in1025.1 mb 0.00 in0.0 mm 0.00 in0.0 mm 0.00 in0.0 mm
07:45 PM 35.1°F1.7°C 16.3°F-8.7°C 46% 1.7 mph W2.7 kmh W 6.1 mph9.8 kmh 30.27 in1025.1 mb 0.00 in0.0 mm 0.00 in0.0 mm 0.00 in0.0 mm
08:00 PM 33.8°F1.0°C 15.7°F-9.1°C 47% 0.8 mph W1.3 kmh W 6.8 mph10.9 kmh 30.30 in1026.1 mb 0.00 in0.0 mm 0.00 in0.0 mm 0.00 in0.0 mm
08:15 PM 33.8°F1.0°C 15.7°F-9.1°C 47% 1.6 mph NW2.6 kmh NW 5.4 mph8.7 kmh 30.30 in1026.1 mb 0.00 in0.0 mm 0.00 in0.0 mm 0.00 in0.0 mm
08:30 PM 33.3°F0.7°C 16.1°F-8.8°C 49% 2.1 mph WNW3.4 kmh WNW 6.1 mph9.8 kmh 30.30 in1026.1 mb 0.00 in0.0 mm 0.00 in0.0 mm 0.00 in0.0 mm
08:45 PM 33.4°F0.8°C 16.8°F-8.4°C 50% 3.7 mph NW6.0 kmh NW 6.8 mph10.9 kmh 30.30 in1026.1 mb 0.00 in0.0 mm 0.00 in0.0 mm 0.00 in0.0 mm
09:00 PM 33.1°F0.6°C 16.4°F-8.7°C 50% 2.6 mph W4.2 kmh W 6.1 mph9.8 kmh 30.30 in1026.1 mb 0.00 in0.0 mm 0.00 in0.0 mm 0.00 in0.0 mm
09:15 PM 32.5°F0.3°C 15.9°F-8.9°C 50% 1.4 mph WNW2.3 kmh WNW 4.7 mph7.6 kmh 30.30 in1026.1 mb 0.00 in0.0 mm 0.00 in0.0 mm 0.00 in0.0 mm
09:30 PM 32.4°F0.2°C 16.2°F-8.8°C 51% 2.0 mph WNW3.2 kmh WNW 7.2 mph11.6 kmh 30.30 in1026.1 mb 0.00 in0.0 mm 0.00 in0.0 mm 0.00 in0.0 mm
09:45 PM 32.2°F0.1°C 16.1°F-8.8°C 51% 1.1 mph W1.8 kmh W 5.4 mph8.7 kmh 30.27 in1025.1 mb 0.00 in0.0 mm 0.00 in0.0 mm 0.00 in0.0 mm
10:00 PM 32.0°F0.0°C 15.9°F-8.9°C 51% 1.0 mph WNW1.6 kmh WNW 6.4 mph10.3 kmh 30.30 in1026.1 mb 0.00 in0.0 mm 0.00 in0.0 mm 0.00 in0.0 mm
10:15 PM 31.3°F-0.4°C 15.7°F-9.1°C 52% Calm Calm -- 30.30 in1026.1 mb 0.00 in0.0 mm 0.00 in0.0 mm 0.00 in0.0 mm
10:30 PM 30.7°F-0.7°C 15.2°F-9.3°C 52% Calm Calm -- 30.30 in1026.1 mb 0.00 in0.0 mm 0.00 in0.0 mm 0.00 in0.0 mm
10:45 PM 30.6°F-0.8°C 15.0°F-9.4°C 52% 0.2 mph NW0.3 kmh NW 3.2 mph5.1 kmh 30.33 in1027.1 mb 0.00 in0.0 mm 0.00 in0.0 mm 0.00 in0.0 mm
11:00 PM 30.6°F-0.8°C 15.4°F-9.2°C 53% Calm Calm -- 30.33 in1027.1 mb 0.00 in0.0 mm 0.00 in0.0 mm 0.00 in0.0 mm
11:15 PM 30.6°F-0.8°C 15.4°F-9.2°C 53% Calm Calm -- 30.33 in1027.1 mb 0.00 in0.0 mm 0.00 in0.0 mm 0.00 in0.0 mm
11:30 PM 29.5°F-1.4°C 14.4°F-9.8°C 53% Calm Calm -- 30.30 in1026.1 mb 0.00 in0.0 mm 0.00 in0.0 mm 0.00 in0.0 mm
11:45 PM 28.6°F-1.9°C 14.0°F-10.0°C 54% Calm Calm -- 30.33 in1027.1 mb 0.00 in0.0 mm 0.00 in0.0 mm 0.00 in0.0 mm